createdAt,value
2023-03-08T00:02:07.090Z,2.05
2023-03-08T00:04:34.725Z,1.50
2023-03-08T00:07:01.524Z,1.65
2023-03-08T00:09:28.349Z,1.92
2023-03-08T00:11:55.092Z,1.93
2023-03-08T00:14:22.349Z,1.55
2023-03-08T00:16:49.770Z,1.80
2023-03-08T00:19:16.596Z,2.65
2023-03-08T00:21:43.478Z,2.38
2023-03-08T00:24:11.953Z,2.22
2023-03-08T00:26:38.716Z,1.70
2023-03-08T00:29:05.460Z,1.85
2023-03-08T00:31:32.313Z,2.03
2023-03-08T00:33:59.014Z,2.28
2023-03-08T00:36:25.827Z,2.10
2023-03-08T00:38:52.647Z,3.03
2023-03-08T00:41:19.614Z,2.17
2023-03-08T00:43:46.376Z,2.63
2023-03-08T00:46:13.991Z,2.80
2023-03-08T00:48:41.425Z,1.90
2023-03-08T00:51:11.495Z,2.17
2023-03-08T00:53:38.245Z,1.60
2023-03-08T00:56:05.504Z,2.25
2023-03-08T00:58:32.420Z,2.13
2023-03-08T01:00:59.590Z,2.20
2023-03-08T01:03:26.817Z,2.15
2023-03-08T01:05:56.534Z,2.10
2023-03-08T01:08:25.089Z,2.10
2023-03-08T01:10:57.469Z,2.78
2023-03-08T01:13:26.409Z,2.40
2023-03-08T01:15:53.178Z,2.00
2023-03-08T01:18:19.974Z,2.15
2023-03-08T01:20:56.058Z,1.83
2023-03-08T01:23:22.971Z,3.40
2023-03-08T01:25:49.946Z,1.95
2023-03-08T01:28:16.710Z,2.00
2023-03-08T01:30:44.967Z,2.08
2023-03-08T01:33:11.714Z,2.38
2023-03-08T01:35:38.519Z,2.50
2023-03-08T01:38:05.205Z,2.40
2023-03-08T01:40:31.985Z,2.40
2023-03-08T01:42:58.680Z,3.87
2023-03-08T01:46:02.991Z,3.10
2023-03-08T01:48:40.750Z,1.90
2023-03-08T01:51:14.914Z,3.88
2023-03-08T01:53:43.694Z,2.80
2023-03-08T01:56:13.692Z,2.75
2023-03-08T01:58:43.780Z,2.80
2023-03-08T02:01:12.119Z,2.70
2023-03-08T02:03:39.191Z,2.90
2023-03-08T02:06:08.129Z,4.05
2023-03-08T02:08:35.096Z,3.67
2023-03-08T02:11:02.007Z,3.90
2023-03-08T02:13:28.967Z,2.90
2023-03-08T02:15:58.256Z,2.97
2023-03-08T02:18:25.117Z,3.90
2023-03-08T02:20:51.971Z,4.60
2023-03-08T02:23:21.284Z,2.72
2023-03-08T02:26:02.527Z,2.57
2023-03-08T02:28:30.480Z,2.38
2023-03-08T02:30:57.782Z,2.72
2023-03-08T02:33:24.744Z,2.15
2023-03-08T02:35:52.141Z,2.80
2023-03-08T02:38:20.610Z,2.45
2023-03-08T02:40:48.165Z,1.90
2023-03-08T02:43:15.449Z,2.45
2023-03-08T02:45:42.220Z,1.67
2023-03-08T02:48:08.946Z,2.67
2023-03-08T02:50:38.427Z,1.88
2023-03-08T02:53:05.848Z,2.42
2023-03-08T02:55:36.073Z,1.83
2023-03-08T02:58:09.226Z,2.08
2023-03-08T03:00:36.882Z,2.00
2023-03-08T03:03:04.255Z,1.80
2023-03-08T03:05:31.003Z,1.88
2023-03-08T03:08:00.162Z,2.90
2023-03-08T03:10:28.767Z,1.83
2023-03-08T03:12:56.152Z,1.70
2023-03-08T03:15:26.389Z,1.85
2023-03-08T03:17:57.446Z,2.65
2023-03-08T03:20:24.864Z,1.75
2023-03-08T03:22:51.653Z,3.15
2023-03-08T03:25:23.291Z,2.23
2023-03-08T03:27:50.414Z,2.30
2023-03-08T03:30:18.310Z,2.00
2023-03-08T03:32:46.081Z,2.15
2023-03-08T03:35:14.575Z,1.77
2023-03-08T03:37:41.422Z,1.63
2023-03-08T03:40:09.085Z,1.77
2023-03-08T03:42:35.971Z,2.00
2023-03-08T03:45:08.616Z,2.33
2023-03-08T03:47:35.698Z,2.22
2023-03-08T03:50:05.611Z,1.80
2023-03-08T03:52:43.101Z,2.00
2023-03-08T03:55:10.270Z,2.20
2023-03-08T03:57:37.974Z,1.90
2023-03-08T04:00:08.600Z,2.85
2023-03-08T04:02:41.305Z,1.85
2023-03-08T04:05:11.394Z,2.05
2023-03-08T04:07:38.645Z,1.40
2023-03-08T04:10:07.183Z,1.40
2023-03-08T04:12:36.308Z,1.35
2023-03-08T04:15:03.376Z,1.67
2023-03-08T04:17:32.458Z,1.17
2023-03-08T04:19:59.235Z,1.30
2023-03-08T04:22:27.847Z,1.10
2023-03-08T04:25:02.628Z,1.30
2023-03-08T04:27:38.876Z,1.17
2023-03-08T04:30:06.388Z,1.42
2023-03-08T04:32:33.532Z,1.00
2023-03-08T04:35:00.528Z,1.48
2023-03-08T04:37:30.501Z,0.93
2023-03-08T04:40:06.972Z,0.98
2023-03-08T04:42:37.265Z,1.00
2023-03-08T04:45:04.575Z,1.50
2023-03-08T04:47:33.610Z,0.95
2023-03-08T04:50:00.860Z,2.50
2023-03-08T04:52:29.333Z,1.15
2023-03-08T04:54:56.318Z,0.98
2023-03-08T04:57:26.361Z,0.80
2023-03-08T04:59:56.076Z,0.90
2023-03-08T05:02:23.767Z,0.97
2023-03-08T05:04:50.905Z,0.98
2023-03-08T05:07:17.975Z,0.60
2023-03-08T05:09:45.629Z,0.63
2023-03-08T05:12:13.520Z,0.80
2023-03-08T05:14:50.583Z,0.88
2023-03-08T05:17:17.753Z,0.88
2023-03-08T05:19:45.090Z,1.20
2023-03-08T05:22:14.191Z,0.63
2023-03-08T05:24:46.737Z,0.63
2023-03-08T05:27:14.297Z,0.63
2023-03-08T05:29:41.674Z,0.60
2023-03-08T05:32:12.102Z,0.60
2023-03-08T05:34:39.858Z,1.40
2023-03-08T05:37:09.680Z,0.60
2023-03-08T05:39:38.395Z,0.60
2023-03-08T05:42:13.514Z,0.70
2023-03-08T05:44:43.646Z,1.00
2023-03-08T05:47:12.619Z,0.77
2023-03-08T05:49:39.795Z,0.50
2023-03-08T05:52:07.549Z,0.68
2023-03-08T05:54:35.336Z,1.45
2023-03-08T05:57:07.464Z,0.73
2023-03-08T05:59:35.399Z,0.50
2023-03-08T06:02:04.209Z,0.50
2023-03-08T06:04:36.443Z,0.60
2023-03-08T06:07:03.395Z,0.50
2023-03-08T06:09:35.966Z,0.50
2023-03-08T06:12:04.200Z,0.50
2023-03-08T06:14:31.113Z,0.65
2023-03-08T06:16:58.391Z,0.68
2023-03-08T06:19:28.493Z,0.50
2023-03-08T06:21:57.170Z,0.57
2023-03-08T06:24:24.044Z,0.40
2023-03-08T06:26:51.585Z,0.40
2023-03-08T06:29:18.385Z,1.20
2023-03-08T06:31:45.157Z,0.40
2023-03-08T06:34:13.327Z,0.63
2023-03-08T06:36:41.194Z,0.40
2023-03-08T06:39:08.019Z,0.40
2023-03-08T06:41:35.838Z,0.80
2023-03-08T06:44:04.345Z,1.00
2023-03-08T06:46:31.192Z,4.90
2023-03-08T06:48:59.984Z,1.65
2023-03-08T06:51:26.943Z,0.52
2023-03-08T06:53:54.113Z,0.60
2023-03-08T06:56:24.670Z,0.30
2023-03-08T06:58:51.557Z,0.65
2023-03-08T07:01:18.552Z,0.98
2023-03-08T07:03:46.470Z,1.10
2023-03-08T07:06:13.253Z,0.40
2023-03-08T07:08:40.644Z,0.32
2023-03-08T07:11:09.684Z,0.52
2023-03-08T07:13:37.504Z,2.55
2023-03-08T07:16:12.596Z,0.45
2023-03-08T07:18:40.398Z,0.60
2023-03-08T07:21:08.049Z,0.60
2023-03-08T07:23:34.766Z,1.00
2023-03-08T07:26:05.530Z,1.30
2023-03-08T07:28:32.331Z,0.60
2023-03-08T07:30:59.109Z,2.00
2023-03-08T07:33:25.790Z,0.60
2023-03-08T07:35:52.582Z,1.48
2023-03-08T07:38:19.449Z,1.63
2023-03-08T07:40:46.221Z,1.65
2023-03-08T07:43:12.939Z,0.90
2023-03-08T07:45:53.318Z,3.70
2023-03-08T07:48:20.117Z,1.70
2023-03-08T07:50:46.897Z,0.85
2023-03-08T07:53:13.721Z,2.88
2023-03-08T07:55:40.473Z,1.77
2023-03-08T07:58:07.216Z,1.38
2023-03-08T08:00:34.006Z,5.18
2023-03-08T08:03:00.742Z,0.53
2023-03-08T08:05:27.548Z,0.77
2023-03-08T08:07:54.735Z,1.63
2023-03-08T08:10:21.768Z,2.20
2023-03-08T08:12:48.451Z,3.72
2023-03-08T08:15:16.781Z,1.60
2023-03-08T08:17:43.555Z,2.13
2023-03-08T08:20:11.109Z,2.50
2023-03-08T08:22:38.340Z,1.60
2023-03-08T08:25:06.320Z,2.95
2023-03-08T08:27:33.310Z,1.95
2023-03-08T08:30:00.095Z,3.00
2023-03-08T08:32:27.199Z,1.63
2023-03-08T08:34:54.275Z,1.70
2023-03-08T08:37:21.049Z,1.30
2023-03-08T08:39:47.696Z,2.55
2023-03-08T08:42:14.520Z,1.27
2023-03-08T08:44:41.258Z,2.38
2023-03-08T08:47:08.688Z,2.30
2023-03-08T08:49:35.465Z,1.90
2023-03-08T08:52:02.214Z,0.97
2023-03-08T08:54:29.098Z,2.72
2023-03-08T08:56:55.913Z,1.55
2023-03-08T08:59:22.810Z,0.52
2023-03-08T09:01:49.511Z,0.68
2023-03-08T09:04:20.720Z,1.10
2023-03-08T09:06:47.550Z,1.40
2023-03-08T09:09:14.285Z,0.68
2023-03-08T09:11:53.773Z,0.95
2023-03-08T09:14:21.438Z,0.75
2023-03-08T09:16:48.396Z,1.80
2023-03-08T09:19:15.459Z,1.17
2023-03-08T09:21:42.314Z,0.93
2023-03-08T09:24:11.479Z,0.88
2023-03-08T09:26:38.374Z,0.60
2023-03-08T09:29:06.417Z,1.25
2023-03-08T09:31:35.245Z,1.00
2023-03-08T09:34:04.692Z,1.00
2023-03-08T09:36:31.606Z,1.10
2023-03-08T09:38:58.812Z,1.70
2023-03-08T09:41:50.517Z,0.95
2023-03-08T09:44:45.720Z,0.63
2023-03-08T09:47:32.748Z,0.93
2023-03-08T09:50:12.274Z,0.60
2023-03-08T09:52:45.327Z,1.05
2023-03-08T09:55:30.033Z,0.63
2023-03-08T09:58:04.653Z,0.60
2023-03-08T10:00:34.088Z,0.80
2023-03-08T10:03:26.536Z,0.60
2023-03-08T10:05:59.034Z,1.10
2023-03-08T10:08:32.056Z,0.40
2023-03-08T10:11:00.520Z,0.90
2023-03-08T10:13:37.334Z,0.57
2023-03-08T10:16:39.148Z,0.60
2023-03-08T10:19:17.471Z,0.80
2023-03-08T10:21:45.166Z,0.88
2023-03-08T10:24:36.910Z,1.30
2023-03-08T10:27:25.667Z,1.90
2023-03-08T10:29:58.190Z,0.82
2023-03-08T10:32:26.547Z,1.85
2023-03-08T10:35:00.044Z,0.80
2023-03-08T10:37:32.168Z,0.70
2023-03-08T10:40:05.262Z,0.80
2023-03-08T10:42:33.247Z,0.70
2023-03-08T10:45:15.266Z,0.73
2023-03-08T10:47:42.119Z,0.90
2023-03-08T10:50:19.805Z,0.98
2023-03-08T10:52:48.677Z,1.98
2023-03-08T10:55:18.239Z,1.00
2023-03-08T10:57:56.801Z,1.48
2023-03-08T11:00:30.676Z,1.43
2023-03-08T11:03:13.924Z,1.58
2023-03-08T11:05:50.471Z,1.20
2023-03-08T11:08:20.925Z,1.33
2023-03-08T11:10:47.902Z,1.40
2023-03-08T11:13:25.556Z,1.40
2023-03-08T11:16:05.842Z,1.43
2023-03-08T11:18:41.367Z,1.40
2023-03-08T11:21:20.339Z,1.45
2023-03-08T11:24:03.125Z,1.65
2023-03-08T11:26:43.062Z,1.58
2023-03-08T11:29:32.759Z,2.35
2023-03-08T11:32:18.855Z,1.65
2023-03-08T11:35:00.235Z,1.50
2023-03-08T11:37:41.898Z,1.80
2023-03-08T11:40:33.513Z,1.40
2023-03-08T11:43:36.634Z,1.60
2023-03-08T11:46:23.952Z,1.63
2023-03-08T11:49:17.756Z,1.63
2023-03-08T11:52:00.729Z,1.60
2023-03-08T11:54:36.723Z,1.48
2023-03-08T11:57:09.960Z,1.40
2023-03-08T11:59:39.944Z,1.50
2023-03-08T12:02:06.749Z,1.17
2023-03-08T12:04:49.854Z,1.98
2023-03-08T12:07:26.416Z,1.30
2023-03-08T12:10:03.089Z,1.42
2023-03-08T12:12:41.944Z,1.73
2023-03-08T12:15:30.762Z,1.60
2023-03-08T12:18:04.653Z,1.50
2023-03-08T12:20:37.215Z,2.13
2023-03-08T12:23:19.391Z,1.58
2023-03-08T12:25:50.299Z,1.40
2023-03-08T12:28:48.653Z,1.40
2023-03-08T12:31:57.002Z,1.30
2023-03-08T12:34:35.107Z,1.50
2023-03-08T12:37:01.934Z,1.70
2023-03-08T12:39:31.805Z,1.30
2023-03-08T12:42:14.570Z,1.80
2023-03-08T12:44:42.219Z,1.90
2023-03-08T12:47:12.021Z,1.25
2023-03-08T12:49:41.777Z,1.40
2023-03-08T12:52:20.685Z,1.50
2023-03-08T12:55:01.197Z,1.35
2023-03-08T12:57:36.008Z,1.30
2023-03-08T13:00:20.632Z,1.35
2023-03-08T13:02:58.220Z,1.17
2023-03-08T13:05:30.498Z,1.20
2023-03-08T13:08:12.250Z,1.17
2023-03-08T13:10:52.501Z,1.00
2023-03-08T13:13:40.697Z,2.00
2023-03-08T13:16:20.677Z,1.40
2023-03-08T13:18:50.464Z,1.25
2023-03-08T13:21:35.543Z,1.10
2023-03-08T13:24:38.650Z,0.93
2023-03-08T13:27:39.758Z,1.33
2023-03-08T13:30:30.950Z,1.10
2023-03-08T13:32:58.584Z,1.92
2023-03-08T13:35:25.664Z,1.98
2023-03-08T13:37:56.174Z,1.20
2023-03-08T13:40:23.918Z,1.20
2023-03-08T13:43:09.391Z,1.20
2023-03-08T13:45:37.124Z,1.90
2023-03-08T13:48:08.732Z,1.05
2023-03-08T13:50:38.513Z,1.00
2023-03-08T13:53:13.923Z,1.17
2023-03-08T13:55:45.861Z,1.30
2023-03-08T13:58:37.259Z,1.00
2023-03-08T14:01:14.830Z,1.10
2023-03-08T14:03:43.066Z,1.10
2023-03-08T14:06:22.999Z,1.90
2023-03-08T14:08:51.237Z,1.00
2023-03-08T14:11:24.861Z,1.90
2023-03-08T14:13:54.956Z,1.30
2023-03-08T14:16:31.532Z,1.20
2023-03-08T14:19:00.810Z,1.20
2023-03-08T14:21:29.993Z,1.00
2023-03-08T14:24:00.665Z,1.17
2023-03-08T14:26:34.987Z,1.20
2023-03-08T14:29:21.846Z,1.25
2023-03-08T14:31:59.493Z,1.55
2023-03-08T14:34:33.817Z,1.13
2023-03-08T14:37:28.165Z,0.88
2023-03-08T14:40:11.836Z,1.30
2023-03-08T14:42:47.833Z,1.30
2023-03-08T14:45:26.637Z,1.55
2023-03-08T14:47:58.989Z,1.70
2023-03-08T14:50:34.008Z,1.10
2023-03-08T14:53:04.013Z,0.90
2023-03-08T14:55:33.680Z,1.10
2023-03-08T14:58:10.425Z,1.30
2023-03-08T15:00:37.883Z,1.20
2023-03-08T15:03:04.846Z,1.17
2023-03-08T15:05:33.098Z,0.95
2023-03-08T15:08:00.552Z,1.10
2023-03-08T15:10:29.155Z,1.20
2023-03-08T15:12:56.490Z,1.00
2023-03-08T15:15:23.757Z,1.40
2023-03-08T15:17:50.690Z,1.25
2023-03-08T15:20:19.219Z,0.90
2023-03-08T15:22:52.747Z,0.73
2023-03-08T15:25:44.937Z,1.00
2023-03-08T15:28:15.429Z,1.13
2023-03-08T15:30:42.564Z,1.77
2023-03-08T15:33:09.770Z,1.15
2023-03-08T15:35:40.574Z,0.95
2023-03-08T15:38:07.557Z,1.35
2023-03-08T15:40:35.491Z,1.05
2023-03-08T15:43:02.435Z,1.20
2023-03-08T15:45:29.292Z,1.10
2023-03-08T15:48:04.092Z,1.08
2023-03-08T15:50:32.237Z,1.10
2023-03-08T15:52:59.806Z,1.52
2023-03-08T15:55:28.234Z,1.10
2023-03-08T15:57:55.407Z,0.93
2023-03-08T16:00:23.750Z,1.02
2023-03-08T16:02:53.229Z,1.05
2023-03-08T16:05:23.180Z,1.08
2023-03-08T16:07:59.268Z,0.73
2023-03-08T16:10:27.609Z,1.13
2023-03-08T16:12:54.353Z,0.95
2023-03-08T16:15:21.592Z,1.10
2023-03-08T16:17:48.426Z,1.58
2023-03-08T16:20:16.138Z,0.90
2023-03-08T16:22:42.999Z,1.13
2023-03-08T16:25:09.882Z,1.38
2023-03-08T16:27:38.301Z,1.00
2023-03-08T16:30:05.948Z,1.13
2023-03-08T16:32:32.826Z,1.23
2023-03-08T16:35:00.838Z,1.23
2023-03-08T16:37:28.002Z,1.58
2023-03-08T16:39:55.063Z,1.38
2023-03-08T16:42:23.702Z,1.17
2023-03-08T16:44:53.888Z,1.10
2023-03-08T16:47:22.434Z,1.30
2023-03-08T16:49:49.432Z,1.23
2023-03-08T16:52:17.846Z,1.30
2023-03-08T16:54:44.977Z,1.30
2023-03-08T16:57:19.080Z,1.30
2023-03-08T16:59:47.377Z,1.30
2023-03-08T17:02:16.697Z,1.38
2023-03-08T17:04:43.857Z,1.30
2023-03-08T17:07:11.623Z,1.30
2023-03-08T17:09:39.226Z,1.30
2023-03-08T17:12:07.816Z,1.10
2023-03-08T17:14:35.063Z,1.52
2023-03-08T17:17:02.531Z,1.40
2023-03-08T17:19:29.361Z,1.63
2023-03-08T17:21:56.275Z,1.30
2023-03-08T17:24:23.288Z,1.60
2023-03-08T17:26:52.664Z,1.40
2023-03-08T17:29:19.731Z,1.50
2023-03-08T17:31:47.751Z,1.90
2023-03-08T17:34:14.741Z,1.50
2023-03-08T17:36:41.692Z,1.40
2023-03-08T17:39:08.856Z,1.40
2023-03-08T17:41:35.859Z,1.50
2023-03-08T17:44:02.601Z,1.48
2023-03-08T17:46:30.057Z,1.40
2023-03-08T17:48:56.943Z,1.53
2023-03-08T17:51:27.020Z,1.55
2023-03-08T17:53:54.161Z,1.60
2023-03-08T17:56:24.997Z,1.58
2023-03-08T17:58:52.418Z,2.53
2023-03-08T18:01:21.767Z,1.63
2023-03-08T18:03:49.535Z,1.80
2023-03-08T18:06:26.972Z,1.70
2023-03-08T18:08:53.957Z,1.90
2023-03-08T18:11:21.224Z,1.70
2023-03-08T18:13:48.726Z,2.00
2023-03-08T18:16:15.575Z,1.73
2023-03-08T18:18:42.371Z,1.80
2023-03-08T18:21:13.771Z,1.50
2023-03-08T18:23:43.110Z,1.98
2023-03-08T18:26:12.715Z,1.70
2023-03-08T18:28:39.993Z,1.80
2023-03-08T18:31:09.269Z,1.90
2023-03-08T18:33:36.526Z,2.13
2023-03-08T18:36:03.951Z,1.55
2023-03-08T18:38:30.691Z,1.90
2023-03-08T18:40:57.566Z,1.70
2023-03-08T18:43:25.333Z,1.90
2023-03-08T18:45:53.705Z,1.75
2023-03-08T18:48:21.847Z,2.08
2023-03-08T18:50:49.158Z,2.40
2023-03-08T18:53:16.069Z,2.05
2023-03-08T18:55:56.719Z,1.85
2023-03-08T18:58:25.677Z,1.90
2023-03-08T19:00:58.887Z,2.03
2023-03-08T19:03:27.127Z,2.00
2023-03-08T19:05:54.196Z,1.87
2023-03-08T19:08:21.009Z,2.03
2023-03-08T19:10:47.832Z,2.17
2023-03-08T19:13:14.549Z,2.20
2023-03-08T19:15:41.975Z,2.30
2023-03-08T19:18:09.758Z,2.10
2023-03-08T19:20:41.357Z,2.20
2023-03-08T19:23:09.329Z,2.20
2023-03-08T19:26:00.338Z,2.17
2023-03-08T19:28:27.663Z,2.17
2023-03-08T19:30:54.400Z,2.38
2023-03-08T19:33:31.431Z,2.35
2023-03-08T19:35:58.793Z,2.50
2023-03-08T19:38:25.562Z,2.83
2023-03-08T19:40:52.276Z,2.20
2023-03-08T19:43:18.992Z,2.40
2023-03-08T19:45:49.703Z,2.50
2023-03-08T19:48:16.566Z,2.65
2023-03-08T19:50:46.864Z,3.03
2023-03-08T19:53:13.882Z,2.60
2023-03-08T19:55:52.533Z,2.78
2023-03-08T19:58:19.934Z,3.38
2023-03-08T20:00:47.707Z,2.60
2023-03-08T20:03:16.632Z,2.83
2023-03-08T20:05:46.655Z,2.60
2023-03-08T20:08:13.961Z,2.90
2023-03-08T20:10:41.063Z,2.80
2023-03-08T20:13:07.734Z,2.75
2023-03-08T20:15:34.510Z,2.97
2023-03-08T20:18:01.327Z,2.70
2023-03-08T20:20:28.361Z,2.78
2023-03-08T20:22:55.106Z,2.75
2023-03-08T20:25:21.862Z,2.88
2023-03-08T20:27:48.695Z,2.80
2023-03-08T20:30:15.585Z,3.40
2023-03-08T20:32:42.334Z,2.73
2023-03-08T20:35:12.687Z,2.75
2023-03-08T20:37:39.886Z,3.05
2023-03-08T20:40:08.984Z,3.10
2023-03-08T20:42:36.703Z,2.88
2023-03-08T20:45:04.760Z,2.80
2023-03-08T20:47:31.710Z,2.95
2023-03-08T20:49:58.544Z,2.70
2023-03-08T20:52:25.365Z,2.88
2023-03-08T20:54:52.073Z,2.85
2023-03-08T20:57:18.798Z,2.83
2023-03-08T20:59:45.713Z,2.78
2023-03-08T21:02:12.741Z,2.65
2023-03-08T21:04:39.604Z,2.88
2023-03-08T21:07:06.699Z,2.90
2023-03-08T21:09:34.002Z,3.05
2023-03-08T21:12:00.756Z,2.80
2023-03-08T21:14:28.889Z,2.75
2023-03-08T21:16:55.651Z,2.80
2023-03-08T21:19:23.827Z,2.95
2023-03-08T21:21:51.197Z,3.00
2023-03-08T21:24:19.827Z,2.60
2023-03-08T21:26:46.655Z,3.13
2023-03-08T21:29:16.919Z,3.13
2023-03-08T21:31:48.327Z,3.05
2023-03-08T21:34:15.549Z,2.60
2023-03-08T21:36:43.195Z,2.97
2023-03-08T21:39:11.817Z,2.70
2023-03-08T21:41:40.956Z,2.95
2023-03-08T21:44:14.494Z,3.00
2023-03-08T21:46:41.874Z,2.65
2023-03-08T21:49:16.460Z,2.75
2023-03-08T21:51:43.646Z,2.58
2023-03-08T21:54:10.536Z,3.00
2023-03-08T21:56:37.430Z,2.83
2023-03-08T21:59:04.472Z,2.50
2023-03-08T22:01:31.912Z,2.55
2023-03-08T22:04:00.269Z,2.63
2023-03-08T22:06:27.546Z,2.90
2023-03-08T22:08:55.002Z,2.70
2023-03-08T22:11:23.592Z,2.77
2023-03-08T22:13:56.915Z,4.88
2023-03-08T22:16:24.723Z,2.70
2023-03-08T22:18:56.921Z,3.35
2023-03-08T22:21:23.806Z,2.80
2023-03-08T22:23:55.612Z,3.42
2023-03-08T22:26:23.777Z,3.20
2023-03-08T22:28:51.263Z,2.92
2023-03-08T22:31:20.562Z,3.37
2023-03-08T22:33:47.928Z,3.22
2023-03-08T22:36:16.485Z,2.88
2023-03-08T22:38:43.339Z,4.07
2023-03-08T22:41:22.310Z,3.10
2023-03-08T22:43:50.167Z,4.53
2023-03-08T22:46:23.075Z,2.90
2023-03-08T22:48:50.994Z,3.63
2023-03-08T22:51:19.914Z,2.75
2023-03-08T22:53:46.935Z,2.60
2023-03-08T22:56:18.273Z,2.90
2023-03-08T22:58:45.373Z,4.35
2023-03-08T23:01:17.890Z,3.03
2023-03-08T23:03:44.764Z,3.25
2023-03-08T23:06:11.808Z,2.78
2023-03-08T23:08:38.642Z,3.03
2023-03-08T23:11:06.623Z,3.20
2023-03-08T23:13:34.832Z,2.78
2023-03-08T23:16:02.575Z,2.80
2023-03-08T23:18:29.351Z,3.00
2023-03-08T23:20:56.063Z,2.90
2023-03-08T23:23:25.076Z,3.97
2023-03-08T23:25:52.603Z,3.97
2023-03-08T23:28:19.960Z,2.70
2023-03-08T23:30:47.053Z,4.03
2023-03-08T23:33:14.004Z,2.90
2023-03-08T23:35:41.180Z,3.00
2023-03-08T23:38:08.470Z,2.90
2023-03-08T23:40:39.359Z,2.80
2023-03-08T23:43:06.968Z,3.30
2023-03-08T23:45:33.701Z,2.85
2023-03-08T23:48:02.897Z,2.78
2023-03-08T23:50:30.010Z,3.80
2023-03-08T23:52:56.870Z,2.53
2023-03-08T23:55:23.719Z,3.10
2023-03-08T23:57:50.533Z,3.10
